createdAt,value
2018-11-06T00:00:59.950Z,0
2018-11-06T00:02:00.557Z,0
2018-11-06T00:03:01.274Z,0
2018-11-06T00:04:01.990Z,0
2018-11-06T00:05:02.659Z,0
2018-11-06T00:06:03.335Z,0
2018-11-06T00:07:04.044Z,0
2018-11-06T00:08:04.712Z,0
2018-11-06T00:09:05.385Z,0
2018-11-06T00:10:06.061Z,0
2018-11-06T00:11:06.723Z,0
2018-11-06T00:12:07.392Z,0
2018-11-06T00:13:08.063Z,0
2018-11-06T00:14:08.781Z,0
2018-11-06T00:15:09.449Z,0
2018-11-06T00:16:10.119Z,0
2018-11-06T00:17:10.787Z,0
2018-11-06T00:18:11.456Z,0
2018-11-06T00:19:12.126Z,0
2018-11-06T00:20:12.795Z,0
2018-11-06T00:21:13.510Z,0
2018-11-06T00:22:14.182Z,0
2018-11-06T00:23:14.852Z,0
2018-11-06T00:24:15.519Z,0
2018-11-06T00:25:16.187Z,0
2018-11-06T00:26:16.859Z,0
2018-11-06T00:27:17.532Z,0
2018-11-06T00:28:18.197Z,0
2018-11-06T00:29:18.866Z,0
2018-11-06T00:30:19.550Z,0
2018-11-06T00:31:20.205Z,0
2018-11-06T00:32:20.875Z,0
2018-11-06T00:33:21.553Z,0
2018-11-06T00:34:22.295Z,0
2018-11-06T00:35:22.884Z,0
2018-11-06T00:36:23.552Z,0
2018-11-06T00:37:24.222Z,0
2018-11-06T00:38:24.901Z,0
2018-11-06T00:39:25.563Z,0
2018-11-06T00:40:26.231Z,0
2018-11-06T00:41:26.948Z,0
2018-11-06T00:42:27.623Z,0
2018-11-06T00:43:28.338Z,0
2018-11-06T00:44:29.054Z,0
2018-11-06T00:45:29.762Z,0
2018-11-06T00:46:30.432Z,0
2018-11-06T00:47:31.099Z,0
2018-11-06T00:48:31.771Z,0
2018-11-06T00:49:32.448Z,0
2018-11-06T00:50:33.110Z,0
2018-11-06T00:51:33.777Z,0
2018-11-06T00:52:34.447Z,0
2018-11-06T00:53:35.115Z,0
2018-11-06T00:54:35.836Z,0
2018-11-06T00:55:36.509Z,0
2018-11-06T00:56:37.173Z,0
2018-11-06T00:57:37.841Z,0
2018-11-06T00:58:38.510Z,0
2018-11-06T00:59:39.177Z,0
2018-11-06T01:00:39.847Z,0
2018-11-06T01:01:40.518Z,0
2018-11-06T01:02:41.187Z,0
2018-11-06T01:03:41.875Z,0
2018-11-06T01:04:42.523Z,0
2018-11-06T01:05:43.199Z,0
2018-11-06T01:06:43.908Z,0
2018-11-06T01:07:44.580Z,0
2018-11-06T01:08:45.248Z,0
2018-11-06T01:09:45.927Z,0
2018-11-06T01:10:46.635Z,0
2018-11-06T01:11:47.305Z,0
2018-11-06T01:12:47.975Z,0
2018-11-06T01:13:48.641Z,0
2018-11-06T01:14:49.311Z,0
2018-11-06T01:15:49.979Z,0
2018-11-06T01:16:50.648Z,0
2018-11-06T01:17:51.313Z,0
2018-11-06T01:18:51.979Z,0
2018-11-06T01:19:52.651Z,0
2018-11-06T01:20:53.361Z,0
2018-11-06T01:21:54.029Z,0
2018-11-06T01:22:54.696Z,0
2018-11-06T01:23:55.364Z,0
2018-11-06T01:24:56.030Z,0
2018-11-06T01:25:56.697Z,0
2018-11-06T01:26:57.366Z,0
2018-11-06T01:27:58.073Z,0
2018-11-06T01:28:58.751Z,0
2018-11-06T01:29:59.409Z,0
2018-11-06T01:31:00.077Z,0
2018-11-06T01:32:00.744Z,0
2018-11-06T01:33:01.411Z,0
2018-11-06T01:34:02.079Z,0
2018-11-06T01:35:02.747Z,0
2018-11-06T01:36:03.413Z,0
2018-11-06T01:37:04.079Z,0
2018-11-06T01:38:04.746Z,0
2018-11-06T01:39:05.413Z,0
2018-11-06T01:40:06.087Z,0
2018-11-06T01:41:06.748Z,0
2018-11-06T01:42:07.413Z,0
2018-11-06T01:43:08.082Z,0
2018-11-06T01:44:08.792Z,0
2018-11-06T01:45:09.460Z,0
2018-11-06T01:46:10.127Z,0
2018-11-06T01:47:10.793Z,0
2018-11-06T01:48:11.468Z,0
2018-11-06T01:49:12.126Z,0
2018-11-06T01:50:12.793Z,0
2018-11-06T01:51:13.460Z,0
2018-11-06T01:52:14.126Z,0
2018-11-06T01:53:14.794Z,0
2018-11-06T01:54:15.504Z,0
2018-11-06T01:55:16.225Z,0
2018-11-06T01:56:16.890Z,0
2018-11-06T01:57:17.555Z,0
2018-11-06T01:58:18.222Z,0
2018-11-06T01:59:18.887Z,0
2018-11-06T02:00:19.554Z,0
2018-11-06T02:01:20.220Z,0
2018-11-06T02:02:20.932Z,0
2018-11-06T02:03:21.599Z,0
2018-11-06T02:04:22.263Z,0
2018-11-06T02:05:22.931Z,0
2018-11-06T02:06:23.598Z,0
2018-11-06T02:07:24.265Z,0
2018-11-06T02:08:24.931Z,0
2018-11-06T02:09:25.599Z,0
2018-11-06T02:10:26.265Z,0
2018-11-06T02:11:26.931Z,0
2018-11-06T02:12:27.598Z,0
2018-11-06T02:13:28.265Z,0
2018-11-06T02:14:28.936Z,0
2018-11-06T02:15:29.651Z,0
2018-11-06T02:16:30.309Z,0
2018-11-06T02:17:30.980Z,0
2018-11-06T02:18:31.643Z,0
2018-11-06T02:19:32.312Z,0
2018-11-06T02:20:32.977Z,0
2018-11-06T02:21:33.642Z,0
2018-11-06T02:22:34.310Z,0
2018-11-06T02:23:34.976Z,0
2018-11-06T02:24:35.643Z,0
2018-11-06T02:25:36.308Z,0
2018-11-06T02:26:37.002Z,0
2018-11-06T02:27:37.642Z,0
2018-11-06T02:28:38.309Z,0
2018-11-06T02:29:38.976Z,0
2018-11-06T02:30:39.644Z,0
2018-11-06T02:31:40.312Z,0
2018-11-06T02:32:40.978Z,0
2018-11-06T02:33:41.644Z,0
2018-11-06T02:34:42.319Z,0
2018-11-06T02:35:43.021Z,0
2018-11-06T02:36:43.687Z,0
2018-11-06T02:37:44.359Z,0
2018-11-06T02:38:45.065Z,0
2018-11-06T02:39:45.776Z,0
2018-11-06T02:40:46.442Z,0
2018-11-06T02:41:47.108Z,0
2018-11-06T02:42:47.774Z,0
2018-11-06T02:43:48.440Z,0
2018-11-06T02:44:49.110Z,0
2018-11-06T02:45:49.774Z,0
2018-11-06T02:46:50.449Z,0
2018-11-06T02:47:51.108Z,0
2018-11-06T02:48:51.774Z,0
2018-11-06T02:49:52.484Z,0
2018-11-06T02:50:53.151Z,0
2018-11-06T02:51:53.817Z,0
2018-11-06T02:52:54.486Z,0
2018-11-06T02:53:55.196Z,0
2018-11-06T02:54:55.863Z,0
2018-11-06T02:55:56.692Z,0
2018-11-06T02:56:57.252Z,0
2018-11-06T02:57:57.912Z,0
2018-11-06T02:58:58.620Z,0
2018-11-06T02:59:59.287Z,0
2018-11-06T03:00:59.953Z,0
2018-11-06T03:02:00.621Z,0
2018-11-06T03:03:01.295Z,0
2018-11-06T03:04:02.041Z,0
2018-11-06T03:05:02.666Z,0
2018-11-06T03:06:03.335Z,0
2018-11-06T03:07:04.002Z,0
2018-11-06T03:08:04.669Z,0
2018-11-06T03:09:05.380Z,0
2018-11-06T03:10:06.050Z,0
2018-11-06T03:11:06.715Z,0
2018-11-06T03:12:07.391Z,0
2018-11-06T03:13:08.048Z,0
2018-11-06T03:14:08.714Z,0
2018-11-06T03:15:09.381Z,0
2018-11-06T03:16:10.057Z,0
2018-11-06T03:17:10.760Z,0
2018-11-06T03:18:11.426Z,0
2018-11-06T03:19:12.093Z,0
2018-11-06T03:20:12.759Z,0
2018-11-06T03:21:13.427Z,0
2018-11-06T03:22:14.099Z,0
2018-11-06T03:23:14.766Z,0
2018-11-06T03:24:15.425Z,0
2018-11-06T03:25:16.093Z,0
2018-11-06T03:26:16.806Z,0
2018-11-06T03:27:17.473Z,0
2018-11-06T03:28:18.188Z,0
2018-11-06T03:29:18.853Z,0
2018-11-06T03:30:19.523Z,0
2018-11-06T03:31:20.230Z,0
2018-11-06T03:32:20.899Z,0
2018-11-06T03:33:21.607Z,0
2018-11-06T03:34:22.274Z,0
2018-11-06T03:35:22.942Z,0
2018-11-06T03:36:23.609Z,0
2018-11-06T03:37:24.279Z,0
2018-11-06T03:38:24.942Z,0
2018-11-06T03:39:25.611Z,0
2018-11-06T03:40:26.287Z,0
2018-11-06T03:41:26.988Z,0
2018-11-06T03:42:27.646Z,0
2018-11-06T03:43:28.314Z,0
2018-11-06T03:44:28.979Z,0
2018-11-06T03:45:29.647Z,0
2018-11-06T03:46:30.314Z,0
2018-11-06T03:47:30.982Z,0
2018-11-06T03:48:31.650Z,0
2018-11-06T03:49:32.311Z,0
2018-11-06T03:50:32.980Z,0
2018-11-06T03:51:33.647Z,0
2018-11-06T03:52:34.324Z,0
2018-11-06T03:53:35.024Z,0
2018-11-06T03:54:35.689Z,0
2018-11-06T03:55:36.358Z,0
2018-11-06T03:56:37.025Z,0
2018-11-06T03:57:37.736Z,0
2018-11-06T03:58:38.442Z,0
2018-11-06T03:59:39.111Z,0
2018-11-06T04:00:39.777Z,0
2018-11-06T04:01:40.443Z,0
2018-11-06T04:02:41.114Z,0
2018-11-06T04:03:41.821Z,0
2018-11-06T04:04:42.488Z,0
2018-11-06T04:05:43.157Z,0
2018-11-06T04:06:43.870Z,0
2018-11-06T04:07:44.541Z,0
2018-11-06T04:08:45.243Z,0
2018-11-06T04:09:45.912Z,0
2018-11-06T04:10:46.577Z,0
2018-11-06T04:11:47.245Z,0
2018-11-06T04:12:47.909Z,0
2018-11-06T04:13:48.583Z,0
2018-11-06T04:14:49.297Z,0
2018-11-06T04:15:49.961Z,0
2018-11-06T04:16:50.627Z,0
2018-11-06T04:17:51.292Z,0
2018-11-06T04:18:51.959Z,0
2018-11-06T04:19:52.625Z,0
2018-11-06T04:20:53.292Z,0
2018-11-06T04:21:53.958Z,0
2018-11-06T04:22:54.624Z,0
2018-11-06T04:23:55.292Z,0
2018-11-06T04:24:55.958Z,0
2018-11-06T04:25:56.628Z,0
2018-11-06T04:26:57.291Z,0
2018-11-06T04:27:57.960Z,0
2018-11-06T04:28:58.626Z,0
2018-11-06T04:29:59.292Z,0
2018-11-06T04:30:59.959Z,0
2018-11-06T04:32:00.626Z,0
2018-11-06T04:33:01.292Z,0
2018-11-06T04:34:01.960Z,0
2018-11-06T04:35:02.633Z,0
2018-11-06T04:36:03.342Z,0
2018-11-06T04:37:04.049Z,0
2018-11-06T04:38:04.711Z,0
2018-11-06T04:39:05.379Z,0
2018-11-06T04:40:06.045Z,0
2018-11-06T04:41:06.716Z,0
2018-11-06T04:42:07.380Z,0
2018-11-06T04:43:08.094Z,0
2018-11-06T04:44:08.801Z,0
2018-11-06T04:45:09.472Z,0
2018-11-06T04:46:10.133Z,0
2018-11-06T04:47:10.801Z,0
2018-11-06T04:48:11.512Z,0
2018-11-06T04:49:12.178Z,0
2018-11-06T04:50:13.362Z,0
2018-11-06T04:51:14.027Z,0
2018-11-06T04:52:14.695Z,0
2018-11-06T04:53:15.405Z,0
2018-11-06T04:54:16.071Z,0
2018-11-06T04:55:16.737Z,0
2018-11-06T04:56:17.403Z,0
2018-11-06T04:57:18.076Z,0
2018-11-06T04:58:18.779Z,0
2018-11-06T04:59:19.452Z,0
2018-11-06T05:00:20.114Z,0
2018-11-06T05:01:20.822Z,0
2018-11-06T05:02:21.490Z,0
2018-11-06T05:03:22.156Z,0
2018-11-06T05:04:22.823Z,0
2018-11-06T05:05:23.489Z,0
2018-11-06T05:06:24.158Z,0
2018-11-06T05:07:24.824Z,0
2018-11-06T05:08:25.534Z,0
2018-11-06T05:09:26.201Z,0
2018-11-06T05:10:26.887Z,0
2018-11-06T05:11:27.540Z,0
2018-11-06T05:12:28.202Z,0
2018-11-06T05:13:28.869Z,0
2018-11-06T05:14:29.545Z,0
2018-11-06T05:15:30.246Z,0
2018-11-06T05:16:30.913Z,0
2018-11-06T05:17:31.578Z,0
2018-11-06T05:18:32.250Z,0
2018-11-06T05:19:32.912Z,0
2018-11-06T05:20:33.577Z,0
2018-11-06T05:21:34.245Z,0
2018-11-06T05:22:34.910Z,0
2018-11-06T05:23:35.575Z,0
2018-11-06T05:24:36.242Z,0
2018-11-06T05:25:37.003Z,0
2018-11-06T05:26:37.612Z,0
2018-11-06T05:27:38.452Z,0
2018-11-06T05:28:39.027Z,0
2018-11-06T05:29:39.692Z,0
2018-11-06T05:30:40.359Z,0
2018-11-06T05:31:41.025Z,0
2018-11-06T05:32:41.703Z,0
2018-11-06T05:33:42.359Z,0
2018-11-06T05:34:43.037Z,0
2018-11-06T05:35:43.728Z,0
2018-11-06T05:36:44.395Z,0
2018-11-06T05:37:45.060Z,0
2018-11-06T05:38:45.749Z,0
2018-11-06T05:39:46.396Z,0
2018-11-06T05:40:47.130Z,4
2018-11-06T05:41:47.771Z,4
2018-11-06T05:42:48.436Z,4
2018-11-06T05:43:49.119Z,4
2018-11-06T05:44:49.770Z,0
2018-11-06T05:45:50.438Z,0
2018-11-06T05:46:51.103Z,4
2018-11-06T05:47:51.769Z,4
2018-11-06T05:48:52.444Z,4
2018-11-06T05:49:53.101Z,4
2018-11-06T05:50:53.769Z,4
2018-11-06T05:51:54.438Z,4
2018-11-06T05:52:55.103Z,8
2018-11-06T05:53:55.794Z,12
2018-11-06T05:54:56.485Z,8
2018-11-06T05:55:57.152Z,12
2018-11-06T05:56:57.819Z,16
2018-11-06T05:57:58.488Z,20
2018-11-06T05:58:59.163Z,20
2018-11-06T05:59:59.867Z,24
2018-11-06T06:01:00.612Z,28
2018-11-06T06:02:01.238Z,32
2018-11-06T06:03:01.907Z,36
2018-11-06T06:04:02.578Z,40
2018-11-06T06:05:03.242Z,44
2018-11-06T06:06:03.909Z,52
2018-11-06T06:07:04.653Z,60
2018-11-06T06:08:05.259Z,68
2018-11-06T06:09:05.925Z,80
2018-11-06T06:10:06.595Z,88
2018-11-06T06:11:07.347Z,100
2018-11-06T06:12:07.933Z,108
2018-11-06T06:13:08.601Z,124
2018-11-06T06:14:09.270Z,132
2018-11-06T06:15:09.939Z,140
2018-11-06T06:16:10.608Z,152
2018-11-06T06:17:11.313Z,160
2018-11-06T06:18:11.983Z,176
2018-11-06T06:19:12.652Z,192
2018-11-06T06:20:13.321Z,204
2018-11-06T06:21:14.033Z,220
2018-11-06T06:22:14.702Z,240
2018-11-06T06:23:15.386Z,256
2018-11-06T06:24:16.093Z,272
2018-11-06T06:25:16.755Z,292
2018-11-06T06:26:17.425Z,312
2018-11-06T06:27:18.092Z,336
2018-11-06T06:28:18.814Z,364
2018-11-06T06:29:19.467Z,388
2018-11-06T06:30:20.135Z,416
2018-11-06T06:31:20.804Z,452
2018-11-06T06:32:21.475Z,480
2018-11-06T06:33:22.155Z,520
2018-11-06T06:34:22.878Z,548
2018-11-06T06:35:23.529Z,588
2018-11-06T06:36:24.199Z,620
2018-11-06T06:37:24.870Z,652
2018-11-06T06:38:25.578Z,720
2018-11-06T06:39:26.209Z,768
2018-11-06T06:40:26.878Z,804
2018-11-06T06:41:27.551Z,844
2018-11-06T06:42:28.220Z,888
2018-11-06T06:43:28.889Z,936
2018-11-06T06:44:29.560Z,980
2018-11-06T06:45:30.231Z,1008
2018-11-06T06:46:30.928Z,1084
2018-11-06T06:47:31.610Z,1152
2018-11-06T06:48:32.281Z,1096
2018-11-06T06:49:32.957Z,1180
2018-11-06T06:50:33.624Z,1196
2018-11-06T06:51:34.298Z,1196
2018-11-06T06:52:34.967Z,1180
2018-11-06T06:53:35.637Z,1312
2018-11-06T06:54:36.552Z,1272
2018-11-06T06:55:36.977Z,1368
2018-11-06T06:56:37.651Z,1336
2018-11-06T06:57:38.365Z,1408
2018-11-06T06:58:39.036Z,1420
2018-11-06T06:59:39.707Z,1332
2018-11-06T07:00:40.377Z,1260
2018-11-06T07:01:41.051Z,1340
2018-11-06T07:02:41.808Z,1396
2018-11-06T07:03:42.392Z,1532
2018-11-06T07:04:43.064Z,1692
2018-11-06T07:05:43.734Z,1676
2018-11-06T07:06:44.405Z,1644
2018-11-06T07:07:45.075Z,1584
2018-11-06T07:08:45.746Z,1592
2018-11-06T07:09:46.419Z,1624
2018-11-06T07:10:47.089Z,1680
2018-11-06T07:11:47.804Z,1740
2018-11-06T07:12:48.509Z,1728
2018-11-06T07:13:49.185Z,1868
2018-11-06T07:14:49.858Z,1732
2018-11-06T07:15:50.528Z,1520
2018-11-06T07:16:51.200Z,1400
2018-11-06T07:17:51.874Z,1488
2018-11-06T07:18:52.542Z,1600
2018-11-06T07:19:53.213Z,1672
2018-11-06T07:20:53.884Z,1760
2018-11-06T07:21:54.556Z,1792
2018-11-06T07:22:55.228Z,1784
2018-11-06T07:23:55.948Z,1856
2018-11-06T07:24:56.619Z,1904
2018-11-06T07:25:57.291Z,1924
2018-11-06T07:26:57.960Z,1840
2018-11-06T07:27:58.640Z,1724
2018-11-06T07:28:59.416Z,1732
2018-11-06T07:30:00.035Z,1736
2018-11-06T07:31:00.736Z,1744
2018-11-06T07:32:01.408Z,1768
2018-11-06T07:33:02.080Z,1828
2018-11-06T07:34:02.751Z,1852
2018-11-06T07:35:03.598Z,1900
2018-11-06T07:36:04.175Z,1952
2018-11-06T07:37:04.846Z,1992
2018-11-06T07:38:05.522Z,2004
2018-11-06T07:39:06.189Z,2020
2018-11-06T07:40:06.860Z,2056
2018-11-06T07:41:07.602Z,2104
2018-11-06T07:42:08.204Z,2152
2018-11-06T07:43:08.875Z,2220
2018-11-06T07:44:09.547Z,2372
2018-11-06T07:45:10.218Z,2588
2018-11-06T07:46:10.889Z,2796
2018-11-06T07:47:11.608Z,2936
2018-11-06T07:48:12.242Z,3088
2018-11-06T07:49:12.913Z,3388
2018-11-06T07:50:13.580Z,3468
2018-11-06T07:51:14.248Z,3444
2018-11-06T07:52:14.920Z,3472
2018-11-06T07:53:15.592Z,3468
2018-11-06T07:54:16.264Z,3432
2018-11-06T07:55:16.936Z,3216
2018-11-06T07:56:17.637Z,2756
2018-11-06T07:57:18.280Z,2928
2018-11-06T07:58:18.960Z,3024
2018-11-06T07:59:19.627Z,3060
2018-11-06T08:00:20.297Z,2912
2018-11-06T08:01:20.969Z,2900
2018-11-06T08:02:21.640Z,2784
2018-11-06T08:03:22.313Z,2852
2018-11-06T08:04:23.027Z,2652
2018-11-06T08:05:23.656Z,2640
2018-11-06T08:06:24.395Z,2836
2018-11-06T08:07:25.000Z,2852
2018-11-06T08:08:25.673Z,2796
2018-11-06T08:09:26.397Z,2932
2018-11-06T08:10:27.021Z,2916
2018-11-06T08:11:27.693Z,2884
2018-11-06T08:12:28.364Z,3052
2018-11-06T08:13:29.041Z,3128
2018-11-06T08:14:29.767Z,2944
2018-11-06T08:15:30.418Z,2888
2018-11-06T08:16:31.090Z,2580
2018-11-06T08:17:31.764Z,2656
2018-11-06T08:18:32.439Z,3428
2018-11-06T08:19:33.110Z,3268
2018-11-06T08:20:33.803Z,3516
2018-11-06T08:21:34.493Z,3220
2018-11-06T08:22:35.165Z,3104
2018-11-06T08:23:35.859Z,3420
2018-11-06T08:24:36.513Z,3440
2018-11-06T08:25:37.186Z,3676
2018-11-06T08:26:37.858Z,3828
2018-11-06T08:27:38.587Z,3760
2018-11-06T08:28:39.206Z,3856
2018-11-06T08:29:39.881Z,3884
2018-11-06T08:30:40.674Z,3984
2018-11-06T08:31:41.800Z,4140
2018-11-06T08:32:42.430Z,4052
2018-11-06T08:33:42.658Z,3936
2018-11-06T08:34:43.331Z,3432
2018-11-06T08:35:44.016Z,3712
2018-11-06T08:36:44.728Z,4152
2018-11-06T08:37:45.396Z,4328
2018-11-06T08:38:46.069Z,4152
2018-11-06T08:39:46.745Z,4204
2018-11-06T08:40:47.420Z,4004
2018-11-06T08:41:48.093Z,3728
2018-11-06T08:42:48.771Z,3696
2018-11-06T08:43:49.444Z,3720
2018-11-06T08:44:50.163Z,3796
2018-11-06T08:45:50.893Z,4108
2018-11-06T08:46:51.557Z,4216
2018-11-06T08:47:52.241Z,4420
2018-11-06T08:48:52.905Z,4668
2018-11-06T08:49:53.580Z,4876
2018-11-06T08:50:54.258Z,5260
2018-11-06T08:51:54.926Z,5064
2018-11-06T08:52:55.601Z,5104
2018-11-06T08:53:56.279Z,4736
2018-11-06T08:54:56.993Z,4952
2018-11-06T08:55:57.669Z,5300
2018-11-06T08:56:58.341Z,5460
2018-11-06T08:57:59.027Z,5004
2018-11-06T08:58:59.739Z,5264
2018-11-06T09:00:00.410Z,4816
2018-11-06T09:01:01.084Z,4544
2018-11-06T09:02:01.805Z,4080
2018-11-06T09:03:02.532Z,4148
2018-11-06T09:04:03.242Z,4240
2018-11-06T09:05:03.916Z,4192
2018-11-06T09:06:04.591Z,4536
2018-11-06T09:07:05.298Z,4684
2018-11-06T09:08:05.984Z,4884
2018-11-06T09:09:06.660Z,5172
2018-11-06T09:10:07.334Z,4988
2018-11-06T09:11:08.008Z,4792
2018-11-06T09:12:08.689Z,4612
2018-11-06T09:13:09.356Z,4596
2018-11-06T09:14:10.083Z,4044
2018-11-06T09:15:10.798Z,4220
2018-11-06T09:16:11.469Z,4352
2018-11-06T09:17:12.268Z,4264
2018-11-06T09:18:12.857Z,4232
2018-11-06T09:19:13.532Z,4300
2018-11-06T09:20:14.205Z,4280
2018-11-06T09:21:14.882Z,4060
2018-11-06T09:22:15.558Z,4084
2018-11-06T09:23:16.230Z,4152
2018-11-06T09:24:16.905Z,3920
2018-11-06T09:25:17.580Z,3760
2018-11-06T09:26:18.254Z,3732
2018-11-06T09:27:18.934Z,3768
2018-11-06T09:28:19.605Z,3908
2018-11-06T09:29:20.279Z,3956
2018-11-06T09:30:20.955Z,3904
2018-11-06T09:31:21.631Z,3916
2018-11-06T09:32:22.305Z,3968
2018-11-06T09:33:22.980Z,4084
2018-11-06T09:34:23.656Z,4084
2018-11-06T09:35:24.331Z,4116
2018-11-06T09:36:25.009Z,4172
2018-11-06T09:37:25.691Z,4336
2018-11-06T09:38:26.356Z,4384
2018-11-06T09:39:27.032Z,4404
2018-11-06T09:41:28.507Z,4360
2018-11-06T09:42:29.098Z,4556
2018-11-06T09:43:29.775Z,4712
2018-11-06T09:44:30.450Z,4696
2018-11-06T09:45:31.204Z,4732
2018-11-06T09:46:31.804Z,4768
2018-11-06T09:47:32.479Z,4960
2018-11-06T09:48:33.197Z,5060
2018-11-06T09:49:33.879Z,5024
2018-11-06T09:50:34.595Z,5036
2018-11-06T09:51:35.270Z,5156
2018-11-06T09:52:35.944Z,5192
2018-11-06T09:53:36.621Z,5092
2018-11-06T09:54:37.297Z,5052
2018-11-06T09:55:37.968Z,5028
2018-11-06T09:56:38.645Z,4944
2018-11-06T09:57:39.318Z,4848
2018-11-06T09:58:39.994Z,4812
2018-11-06T09:59:40.696Z,4744
2018-11-06T10:00:41.390Z,4772
2018-11-06T10:01:42.065Z,4808
2018-11-06T10:02:42.741Z,4612
2018-11-06T10:03:43.416Z,4440
2018-11-06T10:04:44.090Z,4472
2018-11-06T10:05:44.765Z,4480
2018-11-06T10:06:45.559Z,4492
2018-11-06T10:07:46.145Z,4508
2018-11-06T10:08:46.800Z,4584
2018-11-06T10:09:47.511Z,4500
2018-11-06T10:10:48.190Z,4420
2018-11-06T10:11:48.862Z,4296
2018-11-06T10:12:49.540Z,4296
2018-11-06T10:13:50.256Z,4408
2018-11-06T10:14:50.936Z,4392
2018-11-06T10:15:51.609Z,4312
2018-11-06T10:16:52.286Z,4188
2018-11-06T10:17:52.963Z,4160
2018-11-06T10:18:53.679Z,4128
2018-11-06T10:19:54.357Z,4056
2018-11-06T10:20:55.031Z,3928
2018-11-06T10:21:55.706Z,3828
2018-11-06T10:22:56.380Z,3732
2018-11-06T10:23:57.099Z,3724
2018-11-06T10:24:57.774Z,3804
2018-11-06T10:25:58.450Z,3772
2018-11-06T10:26:59.126Z,3828
2018-11-06T10:27:59.854Z,3884
2018-11-06T10:29:00.531Z,3988
2018-11-06T10:30:01.208Z,3976
2018-11-06T10:31:01.883Z,3968
2018-11-06T10:32:02.561Z,4000
2018-11-06T10:33:03.238Z,3968
2018-11-06T10:34:03.914Z,3948
2018-11-06T10:35:04.591Z,3968
2018-11-06T10:36:05.267Z,3912
2018-11-06T10:37:05.942Z,3712
2018-11-06T10:38:06.649Z,3728
2018-11-06T10:39:07.333Z,3752
2018-11-06T10:40:08.006Z,3728
2018-11-06T10:41:08.681Z,3708
2018-11-06T10:42:09.367Z,3704
2018-11-06T10:43:10.036Z,3532
2018-11-06T10:44:10.755Z,3456
2018-11-06T10:45:11.432Z,3928
2018-11-06T10:46:12.150Z,4056
2018-11-06T10:47:12.827Z,3940
2018-11-06T10:48:13.502Z,4020
2018-11-06T10:49:14.181Z,3872
2018-11-06T10:50:14.908Z,3984
2018-11-06T10:51:15.575Z,4064
2018-11-06T10:52:16.253Z,4052
2018-11-06T10:53:16.931Z,3736
2018-11-06T10:54:17.640Z,3756
2018-11-06T10:55:18.327Z,3592
2018-11-06T10:56:19.004Z,3608
2018-11-06T10:57:19.681Z,3768
2018-11-06T10:58:20.356Z,3964
2018-11-06T10:59:21.036Z,4052
2018-11-06T11:00:21.710Z,4272
2018-11-06T11:01:22.386Z,4088
2018-11-06T11:02:23.062Z,4152
2018-11-06T11:03:23.739Z,4120
2018-11-06T11:04:24.416Z,4176
2018-11-06T11:05:25.095Z,4296
2018-11-06T11:06:25.815Z,4364
2018-11-06T11:07:26.490Z,4156
2018-11-06T11:08:27.167Z,4172
2018-11-06T11:09:27.846Z,4004
2018-11-06T11:10:28.521Z,4044
2018-11-06T11:11:29.203Z,4068
2018-11-06T11:12:29.885Z,4052
2018-11-06T11:13:30.625Z,4180
2018-11-06T11:14:31.228Z,4184
2018-11-06T11:15:31.932Z,4472
2018-11-06T11:16:32.623Z,4700
2018-11-06T11:17:33.301Z,4812
2018-11-06T11:18:33.978Z,4248
2018-11-06T11:19:34.655Z,4628
2018-11-06T11:20:35.332Z,4688
2018-11-06T11:21:36.011Z,4904
2018-11-06T11:22:36.688Z,4932
2018-11-06T11:23:37.365Z,5008
2018-11-06T11:24:38.041Z,5120
2018-11-06T11:25:38.775Z,5076
2018-11-06T11:26:39.395Z,5128
2018-11-06T11:27:40.072Z,5112
2018-11-06T11:28:40.751Z,4964
2018-11-06T11:29:41.433Z,5060
2018-11-06T11:30:42.105Z,5124
2018-11-06T11:31:42.783Z,4876
2018-11-06T11:32:43.461Z,4672
2018-11-06T11:33:44.140Z,4804
2018-11-06T11:34:44.857Z,4648
2018-11-06T11:35:45.534Z,4984
2018-11-06T11:36:46.211Z,5472
2018-11-06T11:37:46.981Z,5432
2018-11-06T11:38:47.607Z,4816
2018-11-06T11:39:48.288Z,5100
2018-11-06T11:40:48.957Z,4504
2018-11-06T11:41:49.633Z,4716
2018-11-06T11:42:50.310Z,4420
2018-11-06T11:43:50.987Z,4500
2018-11-06T11:44:51.665Z,4516
2018-11-06T11:45:52.399Z,4620
2018-11-06T11:46:53.016Z,4520
2018-11-06T11:47:53.696Z,4572
2018-11-06T11:48:54.416Z,4568
2018-11-06T11:49:55.132Z,4972
2018-11-06T11:50:55.809Z,5040
2018-11-06T11:51:56.484Z,5136
2018-11-06T11:52:57.162Z,4676
2018-11-06T11:53:57.838Z,4280
2018-11-06T11:54:58.514Z,4064
2018-11-06T11:55:59.190Z,3780
2018-11-06T11:56:59.867Z,3984
2018-11-06T11:58:00.541Z,3860
2018-11-06T11:59:01.218Z,3808
2018-11-06T12:00:02.023Z,3428
2018-11-06T12:01:02.608Z,3216
2018-11-06T12:02:03.332Z,3280
2018-11-06T12:03:04.001Z,3272
2018-11-06T12:04:04.677Z,3536
2018-11-06T12:05:05.404Z,4512
2018-11-06T12:06:06.074Z,4576
2018-11-06T12:07:06.751Z,4528
2018-11-06T12:08:07.427Z,4436
2018-11-06T12:09:08.136Z,4384
2018-11-06T12:10:08.848Z,3624
2018-11-06T12:11:09.556Z,3632
2018-11-06T12:12:10.263Z,3608
2018-11-06T12:13:10.960Z,4108
2018-11-06T12:14:11.660Z,4248
2018-11-06T12:15:12.336Z,4808
2018-11-06T12:16:13.015Z,4944
2018-11-06T12:17:13.712Z,5888
2018-11-06T12:18:14.384Z,7072
2018-11-06T12:19:15.043Z,17760
2018-11-06T12:20:15.719Z,16628
2018-11-06T12:21:16.397Z,6192
2018-11-06T12:22:17.112Z,4388
2018-11-06T12:23:17.792Z,4184
2018-11-06T12:24:18.656Z,4076
2018-11-06T12:25:19.408Z,4180
2018-11-06T12:26:19.857Z,4028
2018-11-06T12:27:20.534Z,3700
2018-11-06T12:28:21.209Z,3728
2018-11-06T12:29:21.886Z,3600
2018-11-06T12:30:22.564Z,3632
2018-11-06T12:31:23.238Z,3688
2018-11-06T12:32:23.965Z,3912
2018-11-06T12:33:24.588Z,4072
2018-11-06T12:34:25.266Z,4140
2018-11-06T12:35:25.941Z,4172
2018-11-06T12:36:26.651Z,3968
2018-11-06T12:37:27.293Z,3944
2018-11-06T12:38:27.973Z,3964
2018-11-06T12:39:28.688Z,3972
2018-11-06T12:40:29.369Z,4184
2018-11-06T12:41:30.042Z,5916
2018-11-06T12:42:30.718Z,9176
2018-11-06T12:43:31.441Z,10652
2018-11-06T12:44:32.076Z,9292
2018-11-06T12:45:32.751Z,9496
2018-11-06T12:46:33.430Z,8448
2018-11-06T12:47:34.106Z,5408
2018-11-06T12:48:34.833Z,4380
2018-11-06T12:49:35.493Z,3948
2018-11-06T12:50:36.170Z,3908
2018-11-06T12:51:36.848Z,3820
2018-11-06T12:52:37.567Z,3788
2018-11-06T12:53:38.267Z,3680
2018-11-06T12:54:38.969Z,3652
2018-11-06T12:55:39.683Z,3688
2018-11-06T12:56:40.361Z,3640
2018-11-06T12:57:41.038Z,3860
2018-11-06T12:58:41.713Z,3940
2018-11-06T12:59:42.397Z,4084
2018-11-06T13:00:43.110Z,4264
2018-11-06T13:01:43.786Z,4160
2018-11-06T13:02:44.462Z,4208
2018-11-06T13:03:45.140Z,4220
2018-11-06T13:04:45.815Z,4128
2018-11-06T13:05:46.492Z,4128
2018-11-06T13:06:47.167Z,4168
2018-11-06T13:07:47.842Z,4096
2018-11-06T13:08:48.540Z,3884
2018-11-06T13:09:49.268Z,3564
2018-11-06T13:10:49.914Z,3336
2018-11-06T13:11:50.593Z,3296
2018-11-06T13:12:51.314Z,3184
2018-11-06T13:13:52.335Z,3176
2018-11-06T13:14:52.946Z,3088
2018-11-06T13:15:53.736Z,2904
2018-11-06T13:16:54.362Z,2836
2018-11-06T13:17:55.012Z,2676
2018-11-06T13:18:55.700Z,2636
2018-11-06T13:19:56.398Z,2516
2018-11-06T13:20:57.076Z,2412
2018-11-06T13:21:57.755Z,2564
2018-11-06T13:22:58.429Z,2540
2018-11-06T13:23:59.102Z,2416
2018-11-06T13:24:59.777Z,2452
2018-11-06T13:26:00.512Z,2572
2018-11-06T13:27:01.128Z,2596
2018-11-06T13:28:01.805Z,2728
2018-11-06T13:29:02.511Z,2744
2018-11-06T13:30:03.155Z,2832
2018-11-06T13:31:03.832Z,2952
2018-11-06T13:32:04.507Z,3428
2018-11-06T13:33:05.226Z,3904
2018-11-06T13:34:05.948Z,4204
2018-11-06T13:35:06.616Z,4080
2018-11-06T13:36:07.291Z,3856
2018-11-06T13:37:07.968Z,4072
2018-11-06T13:38:08.644Z,4132
2018-11-06T13:39:09.320Z,4160
2018-11-06T13:40:09.995Z,4112
2018-11-06T13:41:10.672Z,3992
2018-11-06T13:42:11.425Z,3916
2018-11-06T13:43:12.114Z,3808
2018-11-06T13:44:13.004Z,3676
2018-11-06T13:45:13.609Z,3596
2018-11-06T13:46:14.372Z,3520
2018-11-06T13:47:15.048Z,3404
2018-11-06T13:48:15.723Z,3228
2018-11-06T13:49:16.400Z,2792
2018-11-06T13:50:17.075Z,2976
2018-11-06T13:51:17.749Z,2892
2018-11-06T13:52:18.475Z,2492
2018-11-06T13:53:19.101Z,2472
2018-11-06T13:54:19.776Z,2292
2018-11-06T13:55:20.451Z,2160
2018-11-06T13:56:21.131Z,2112
2018-11-06T13:57:21.816Z,2192
2018-11-06T13:58:22.536Z,2084
2018-11-06T13:59:23.205Z,1948
2018-11-06T14:00:23.881Z,1768
2018-11-06T14:01:24.557Z,1708
2018-11-06T14:02:25.276Z,1744
2018-11-06T14:03:25.952Z,1724
2018-11-06T14:04:26.652Z,1656
2018-11-06T14:05:27.328Z,1500
2018-11-06T14:06:28.027Z,1472